Карточка аэропорта URRP

Внимание!
Информация на этой странице в стадии наполнения.
Если вы не увидели какой-то информации, или заметили неточность - пожалуйста сообщите нам!
Спасибо!
Команда RU-STAFF
Название аэропортаПлатов
Название аэропорта (англ.)Platov
Превышение282 ft. (86 m.)
Координаты47°29.634', 39°55.482'
Высота перехода3500 ft
Эшелон переходаFL50 (QNH >= 996); FL60 (QNH < 996)
Коды ответчика1001-1017
Зона ОрВДРостов-на-Дону РПИ (URRV)
Данные METARURRP 152300Z 07006MPS 9999 SCT///CB 19/19 Q1007 R05/290050 TEMPO VRB25MPS 0300 +TSRAGR SQ SCT002 BKN020CB RMK QFE750/1000
Проноз погоды (TAF)URRP 151955Z 1521/1621 13003G12MPS 6000 -TSRA FEW003 SCT016 BKN030CB TX29/1612Z TN18/1602Z TEMPO 1521/1603 05003G14MPS BECMG 1603/1605 18003G12MPS TEMPO 1606/1618 21006G15MPS
NOTAMshow/hide NOTAM
AWOS   TABLE

Информация о ВПП

ВПП Длина ВПП (м.) Покрытие Курс ВПП Частота ILS
233900Цементобетон226110.9
053900Цементобетон46111.5

Диспетчерские позиции

Позывной Наименование органа УВД Частота
URRP_APPПлатов-подход128.2
URRP_DELПлатов-деливери127.1
URRP_GNDПлатов - руление119.0
URRP_R_APPПлатов - Круг121.2
URRP_TWRПлатов-Вышка119.7



Спутниковое изображение